sensor_id;sensor_type;location;lat;lon;timestamp;temperature;humidity
20337;DHT22;10326;53.660;10.200;2024-01-11T00:00:46;2.60;90.50
20337;DHT22;10326;53.660;10.200;2024-01-11T00:03:13;2.60;90.50
20337;DHT22;10326;53.660;10.200;2024-01-11T00:05:40;2.60;90.60
20337;DHT22;10326;53.660;10.200;2024-01-11T00:08:10;2.60;90.60
20337;DHT22;10326;53.660;10.200;2024-01-11T00:10:38;2.60;90.60
20337;DHT22;10326;53.660;10.200;2024-01-11T00:13:05;2.60;90.50
20337;DHT22;10326;53.660;10.200;2024-01-11T00:15:31;2.60;90.50
20337;DHT22;10326;53.660;10.200;2024-01-11T00:17:58;2.60;90.60
20337;DHT22;10326;53.660;10.200;2024-01-11T00:20:25;2.60;90.60
20337;DHT22;10326;53.660;10.200;2024-01-11T00:22:52;2.50;90.60
20337;DHT22;10326;53.660;10.200;2024-01-11T00:25:21;2.50;90.60
20337;DHT22;10326;53.660;10.200;2024-01-11T00:27:49;2.50;90.60
20337;DHT22;10326;53.660;10.200;2024-01-11T00:30:16;2.50;90.70
20337;DHT22;10326;53.660;10.200;2024-01-11T00:32:43;2.50;90.70
20337;DHT22;10326;53.660;10.200;2024-01-11T00:35:10;2.50;90.70
20337;DHT22;10326;53.660;10.200;2024-01-11T00:37:37;2.50;90.70
20337;DHT22;10326;53.660;10.200;2024-01-11T00:40:05;2.50;90.70
20337;DHT22;10326;53.660;10.200;2024-01-11T00:42:34;2.50;90.80
20337;DHT22;10326;53.660;10.200;2024-01-11T00:45:01;2.50;90.80
20337;DHT22;10326;53.660;10.200;2024-01-11T00:47:28;2.40;90.70
20337;DHT22;10326;53.660;10.200;2024-01-11T00:49:55;2.40;90.70
20337;DHT22;10326;53.660;10.200;2024-01-11T00:52:22;2.40;90.70
20337;DHT22;10326;53.660;10.200;2024-01-11T00:54:49;2.40;90.70
20337;DHT22;10326;53.660;10.200;2024-01-11T00:57:16;2.30;90.70
20337;DHT22;10326;53.660;10.200;2024-01-11T00:59:44;2.30;90.70
20337;DHT22;10326;53.660;10.200;2024-01-11T01:02:11;2.30;90.80
20337;DHT22;10326;53.660;10.200;2024-01-11T01:04:38;2.30;90.90
20337;DHT22;10326;53.660;10.200;2024-01-11T01:07:05;2.30;90.90
20337;DHT22;10326;53.660;10.200;2024-01-11T01:09:32;2.20;90.80
20337;DHT22;10326;53.660;10.200;2024-01-11T01:12:00;2.20;90.80
20337;DHT22;10326;53.660;10.200;2024-01-11T01:14:27;2.20;90.90
20337;DHT22;10326;53.660;10.200;2024-01-11T01:16:55;2.20;90.80
20337;DHT22;10326;53.660;10.200;2024-01-11T01:19:22;2.10;90.90
20337;DHT22;10326;53.660;10.200;2024-01-11T01:21:49;2.10;90.80
20337;DHT22;10326;53.660;10.200;2024-01-11T01:24:16;2.10;90.90
20337;DHT22;10326;53.660;10.200;2024-01-11T01:26:43;2.00;90.90
20337;DHT22;10326;53.660;10.200;2024-01-11T01:29:10;2.00;91.00
20337;DHT22;10326;53.660;10.200;2024-01-11T01:31:37;2.00;91.00
20337;DHT22;10326;53.660;10.200;2024-01-11T01:34:07;2.00;91.00
20337;DHT22;10326;53.660;10.200;2024-01-11T01:36:34;1.90;91.00
20337;DHT22;10326;53.660;10.200;2024-01-11T01:39:01;1.90;91.00
20337;DHT22;10326;53.660;10.200;2024-01-11T01:41:28;1.90;91.30
20337;DHT22;10326;53.660;10.200;2024-01-11T01:43:55;1.90;91.10
20337;DHT22;10326;53.660;10.200;2024-01-11T01:46:23;1.90;91.10
20337;DHT22;10326;53.660;10.200;2024-01-11T01:48:52;1.90;91.20
20337;DHT22;10326;53.660;10.200;2024-01-11T01:51:22;1.90;91.20
20337;DHT22;10326;53.660;10.200;2024-01-11T01:53:51;1.90;91.30
20337;DHT22;10326;53.660;10.200;2024-01-11T01:56:20;1.80;91.20
20337;DHT22;10326;53.660;10.200;2024-01-11T01:58:48;1.80;91.20
20337;DHT22;10326;53.660;10.200;2024-01-11T02:01:19;1.80;91.30
20337;DHT22;10326;53.660;10.200;2024-01-11T02:03:50;1.80;91.30
20337;DHT22;10326;53.660;10.200;2024-01-11T02:06:18;1.80;91.30
20337;DHT22;10326;53.660;10.200;2024-01-11T02:08:49;1.80;91.30
20337;DHT22;10326;53.660;10.200;2024-01-11T02:11:19;1.90;91.40
20337;DHT22;10326;53.660;10.200;2024-01-11T02:13:47;1.90;91.40
20337;DHT22;10326;53.660;10.200;2024-01-11T02:16:14;1.90;91.30
20337;DHT22;10326;53.660;10.200;2024-01-11T02:18:41;1.90;91.40
20337;DHT22;10326;53.660;10.200;2024-01-11T02:21:11;1.90;91.40
20337;DHT22;10326;53.660;10.200;2024-01-11T02:23:43;2.00;91.40
20337;DHT22;10326;53.660;10.200;2024-01-11T02:26:13;2.00;91.40
20337;DHT22;10326;53.660;10.200;2024-01-11T02:28:44;2.00;91.40
20337;DHT22;10326;53.660;10.200;2024-01-11T02:31:11;2.00;91.40
20337;DHT22;10326;53.660;10.200;2024-01-11T02:33:39;2.00;91.40
20337;DHT22;10326;53.660;10.200;2024-01-11T02:36:06;2.00;91.40
20337;DHT22;10326;53.660;10.200;2024-01-11T02:38:35;2.00;91.30
20337;DHT22;10326;53.660;10.200;2024-01-11T02:41:02;2.00;91.40
20337;DHT22;10326;53.660;10.200;2024-01-11T02:43:31;2.00;91.30
20337;DHT22;10326;53.660;10.200;2024-01-11T02:45:58;2.00;91.30
20337;DHT22;10326;53.660;10.200;2024-01-11T02:48:27;2.00;91.40
20337;DHT22;10326;53.660;10.200;2024-01-11T02:50:55;2.00;91.40
20337;DHT22;10326;53.660;10.200;2024-01-11T02:53:22;2.00;91.40
20337;DHT22;10326;53.660;10.200;2024-01-11T02:55:49;2.00;91.40
20337;DHT22;10326;53.660;10.200;2024-01-11T02:58:17;2.00;91.40
20337;DHT22;10326;53.660;10.200;2024-01-11T03:00:45;2.00;91.40
20337;DHT22;10326;53.660;10.200;2024-01-11T03:03:12;2.00;91.50
20337;DHT22;10326;53.660;10.200;2024-01-11T03:05:39;2.00;91.40
20337;DHT22;10326;53.660;10.200;2024-01-11T03:08:06;2.00;91.50
20337;DHT22;10326;53.660;10.200;2024-01-11T03:10:34;2.00;91.50
20337;DHT22;10326;53.660;10.200;2024-01-11T03:13:04;2.00;91.40
20337;DHT22;10326;53.660;10.200;2024-01-11T03:15:31;2.00;91.50
20337;DHT22;10326;53.660;10.200;2024-01-11T03:18:00;2.10;91.40
20337;DHT22;10326;53.660;10.200;2024-01-11T03:20:27;2.00;91.40
20337;DHT22;10326;53.660;10.200;2024-01-11T03:22:54;2.10;91.40
20337;DHT22;10326;53.660;10.200;2024-01-11T03:25:20;2.10;91.50
20337;DHT22;10326;53.660;10.200;2024-01-11T03:27:47;2.10;91.50
20337;DHT22;10326;53.660;10.200;2024-01-11T03:30:15;2.10;91.40
20337;DHT22;10326;53.660;10.200;2024-01-11T03:32:42;2.10;91.50
20337;DHT22;10326;53.660;10.200;2024-01-11T03:35:10;2.10;91.50
20337;DHT22;10326;53.660;10.200;2024-01-11T03:37:37;2.10;91.50
20337;DHT22;10326;53.660;10.200;2024-01-11T03:40:05;2.10;91.50
20337;DHT22;10326;53.660;10.200;2024-01-11T03:42:33;2.10;91.50
20337;DHT22;10326;53.660;10.200;2024-01-11T03:45:00;2.10;91.50
20337;DHT22;10326;53.660;10.200;2024-01-11T03:47:27;2.10;91.50
20337;DHT22;10326;53.660;10.200;2024-01-11T03:49:54;2.10;91.50
20337;DHT22;10326;53.660;10.200;2024-01-11T03:52:22;2.00;91.40
20337;DHT22;10326;53.660;10.200;2024-01-11T03:54:49;2.00;91.40
20337;DHT22;10326;53.660;10.200;2024-01-11T03:57:16;2.00;91.40
20337;DHT22;10326;53.660;10.200;2024-01-11T03:59:43;2.00;91.50
20337;DHT22;10326;53.660;10.200;2024-01-11T04:02:10;1.90;91.50
20337;DHT22;10326;53.660;10.200;2024-01-11T04:04:37;1.90;91.50
20337;DHT22;10326;53.660;10.200;2024-01-11T04:07:04;1.90;91.50
20337;DHT22;10326;53.660;10.200;2024-01-11T04:09:33;1.90;91.50
20337;DHT22;10326;53.660;10.200;2024-01-11T04:12:00;1.90;91.50
20337;DHT22;10326;53.660;10.200;2024-01-11T04:14:27;1.90;91.50
20337;DHT22;10326;53.660;10.200;2024-01-11T04:16:53;1.90;91.60
20337;DHT22;10326;53.660;10.200;2024-01-11T04:19:20;1.90;91.60
20337;DHT22;10326;53.660;10.200;2024-01-11T04:21:47;1.90;91.60
20337;DHT22;10326;53.660;10.200;2024-01-11T04:24:14;1.90;91.60
20337;DHT22;10326;53.660;10.200;2024-01-11T04:26:42;1.80;91.50
20337;DHT22;10326;53.660;10.200;2024-01-11T04:29:09;1.80;91.50
20337;DHT22;10326;53.660;10.200;2024-01-11T04:31:36;1.80;91.50
20337;DHT22;10326;53.660;10.200;2024-01-11T04:34:03;1.80;91.50
20337;DHT22;10326;53.660;10.200;2024-01-11T04:36:30;1.80;91.60
20337;DHT22;10326;53.660;10.200;2024-01-11T04:38:57;1.80;91.60
20337;DHT22;10326;53.660;10.200;2024-01-11T04:41:24;1.80;91.60
20337;DHT22;10326;53.660;10.200;2024-01-11T04:43:53;1.80;91.60
20337;DHT22;10326;53.660;10.200;2024-01-11T04:46:20;1.80;91.60
20337;DHT22;10326;53.660;10.200;2024-01-11T04:48:49;1.80;91.90
20337;DHT22;10326;53.660;10.200;2024-01-11T04:51:17;1.90;91.70
20337;DHT22;10326;53.660;10.200;2024-01-11T04:53:45;1.90;91.70
20337;DHT22;10326;53.660;10.200;2024-01-11T04:56:14;1.90;91.70
20337;DHT22;10326;53.660;10.200;2024-01-11T04:58:42;1.90;91.70
20337;DHT22;10326;53.660;10.200;2024-01-11T05:01:13;1.90;91.70
20337;DHT22;10326;53.660;10.200;2024-01-11T05:03:40;2.00;91.70
20337;DHT22;10326;53.660;10.200;2024-01-11T05:06:07;2.00;91.70
20337;DHT22;10326;53.660;10.200;2024-01-11T05:08:34;2.00;91.90
20337;DHT22;10326;53.660;10.200;2024-01-11T05:11:01;2.00;91.60
20337;DHT22;10326;53.660;10.200;2024-01-11T05:13:28;2.00;91.50
20337;DHT22;10326;53.660;10.200;2024-01-11T05:15:55;2.00;91.50
20337;DHT22;10326;53.660;10.200;2024-01-11T05:18:23;2.00;91.50
20337;DHT22;10326;53.660;10.200;2024-01-11T05:20:50;2.00;91.50
20337;DHT22;10326;53.660;10.200;2024-01-11T05:23:17;2.00;91.50
20337;DHT22;10326;53.660;10.200;2024-01-11T05:25:44;1.90;91.50
20337;DHT22;10326;53.660;10.200;2024-01-11T05:28:10;1.90;91.50
20337;DHT22;10326;53.660;10.200;2024-01-11T05:30:37;2.00;91.60
20337;DHT22;10326;53.660;10.200;2024-01-11T05:33:04;2.00;91.60
20337;DHT22;10326;53.660;10.200;2024-01-11T05:35:33;2.00;91.90
20337;DHT22;10326;53.660;10.200;2024-01-11T05:38:00;2.00;91.60
20337;DHT22;10326;53.660;10.200;2024-01-11T05:40:27;2.00;91.60
20337;DHT22;10326;53.660;10.200;2024-01-11T05:42:54;2.00;91.60
20337;DHT22;10326;53.660;10.200;2024-01-11T05:45:21;2.00;91.60
20337;DHT22;10326;53.660;10.200;2024-01-11T05:47:48;2.00;91.60
20337;DHT22;10326;53.660;10.200;2024-01-11T05:50:15;2.00;91.60
20337;DHT22;10326;53.660;10.200;2024-01-11T05:52:43;2.00;91.60
20337;DHT22;10326;53.660;10.200;2024-01-11T05:55:10;2.00;91.60
20337;DHT22;10326;53.660;10.200;2024-01-11T05:57:37;2.00;91.60
20337;DHT22;10326;53.660;10.200;2024-01-11T06:00:05;2.00;91.60
20337;DHT22;10326;53.660;10.200;2024-01-11T06:02:33;2.00;91.90
20337;DHT22;10326;53.660;10.200;2024-01-11T06:04:59;1.90;91.70
20337;DHT22;10326;53.660;10.200;2024-01-11T06:07:26;1.90;91.70
20337;DHT22;10326;53.660;10.200;2024-01-11T06:09:55;1.90;91.70
20337;DHT22;10326;53.660;10.200;2024-01-11T06:12:21;2.00;91.80
20337;DHT22;10326;53.660;10.200;2024-01-11T06:14:48;1.90;91.70
20337;DHT22;10326;53.660;10.200;2024-01-11T06:17:15;1.90;91.70
20337;DHT22;10326;53.660;10.200;2024-01-11T06:19:42;1.90;91.70
20337;DHT22;10326;53.660;10.200;2024-01-11T06:22:10;1.90;91.70
20337;DHT22;10326;53.660;10.200;2024-01-11T06:24:36;1.90;91.80
20337;DHT22;10326;53.660;10.200;2024-01-11T06:27:05;1.90;91.90
20337;DHT22;10326;53.660;10.200;2024-01-11T06:29:32;1.90;91.80
20337;DHT22;10326;53.660;10.200;2024-01-11T06:31:59;1.90;91.80
20337;DHT22;10326;53.660;10.200;2024-01-11T06:34:26;2.00;91.90
20337;DHT22;10326;53.660;10.200;2024-01-11T06:36:53;2.00;91.80
20337;DHT22;10326;53.660;10.200;2024-01-11T06:39:21;2.00;92.00
20337;DHT22;10326;53.660;10.200;2024-01-11T06:41:48;2.00;91.90
20337;DHT22;10326;53.660;10.200;2024-01-11T06:44:16;2.00;91.90
20337;DHT22;10326;53.660;10.200;2024-01-11T06:46:43;2.00;91.90
20337;DHT22;10326;53.660;10.200;2024-01-11T06:49:10;2.00;91.90
20337;DHT22;10326;53.660;10.200;2024-01-11T06:51:37;2.00;91.90
20337;DHT22;10326;53.660;10.200;2024-01-11T06:54:04;2.00;91.90
20337;DHT22;10326;53.660;10.200;2024-01-11T06:56:31;2.00;91.90
20337;DHT22;10326;53.660;10.200;2024-01-11T06:58:58;2.00;92.00
20337;DHT22;10326;53.660;10.200;2024-01-11T07:01:27;2.00;92.00
20337;DHT22;10326;53.660;10.200;2024-01-11T07:03:54;2.10;91.90
20337;DHT22;10326;53.660;10.200;2024-01-11T07:06:21;2.00;92.00
20337;DHT22;10326;53.660;10.200;2024-01-11T07:08:48;2.00;92.00
20337;DHT22;10326;53.660;10.200;2024-01-11T07:11:15;2.00;92.00
20337;DHT22;10326;53.660;10.200;2024-01-11T07:13:42;2.00;92.10
20337;DHT22;10326;53.660;10.200;2024-01-11T07:16:09;2.10;92.10
20337;DHT22;10326;53.660;10.200;2024-01-11T07:18:37;2.10;92.10
20337;DHT22;10326;53.660;10.200;2024-01-11T07:21:04;2.10;92.00
20337;DHT22;10326;53.660;10.200;2024-01-11T07:23:31;2.10;92.10
20337;DHT22;10326;53.660;10.200;2024-01-11T07:25:58;2.10;92.00
20337;DHT22;10326;53.660;10.200;2024-01-11T07:28:25;2.10;92.00
20337;DHT22;10326;53.660;10.200;2024-01-11T07:30:52;2.20;92.10
20337;DHT22;10326;53.660;10.200;2024-01-11T07:33:19;2.20;92.10
20337;DHT22;10326;53.660;10.200;2024-01-11T07:35:48;2.20;92.20
20337;DHT22;10326;53.660;10.200;2024-01-11T07:38:15;2.20;92.10
20337;DHT22;10326;53.660;10.200;2024-01-11T07:40:42;2.20;92.10
20337;DHT22;10326;53.660;10.200;2024-01-11T07:43:09;2.20;92.10
20337;DHT22;10326;53.660;10.200;2024-01-11T07:45:36;2.30;92.20
20337;DHT22;10326;53.660;10.200;2024-01-11T07:48:04;2.30;92.20
20337;DHT22;10326;53.660;10.200;2024-01-11T07:50:31;2.30;92.30
20337;DHT22;10326;53.660;10.200;2024-01-11T07:52:59;2.30;92.20
20337;DHT22;10326;53.660;10.200;2024-01-11T07:55:26;2.30;92.20
20337;DHT22;10326;53.660;10.200;2024-01-11T07:57:53;2.40;92.30
20337;DHT22;10326;53.660;10.200;2024-01-11T08:00:21;2.40;92.30
20337;DHT22;10326;53.660;10.200;2024-01-11T08:02:49;2.40;92.30
20337;DHT22;10326;53.660;10.200;2024-01-11T08:05:16;2.40;92.20
20337;DHT22;10326;53.660;10.200;2024-01-11T08:07:43;2.50;92.20
20337;DHT22;10326;53.660;10.200;2024-01-11T08:10:11;2.50;92.30
20337;DHT22;10326;53.660;10.200;2024-01-11T08:12:38;2.50;92.20
20337;DHT22;10326;53.660;10.200;2024-01-11T08:15:05;2.50;92.20
20337;DHT22;10326;53.660;10.200;2024-01-11T08:17:36;2.50;92.20
20337;DHT22;10326;53.660;10.200;2024-01-11T08:20:04;2.50;92.20
20337;DHT22;10326;53.660;10.200;2024-01-11T08:22:33;2.50;92.30
20337;DHT22;10326;53.660;10.200;2024-01-11T08:25:01;2.50;92.30
20337;DHT22;10326;53.660;10.200;2024-01-11T08:27:31;2.50;92.30
20337;DHT22;10326;53.660;10.200;2024-01-11T08:29:58;2.50;92.30
20337;DHT22;10326;53.660;10.200;2024-01-11T08:32:26;2.50;92.30
20337;DHT22;10326;53.660;10.200;2024-01-11T08:34:53;2.50;92.30
20337;DHT22;10326;53.660;10.200;2024-01-11T08:37:20;2.50;92.40
20337;DHT22;10326;53.660;10.200;2024-01-11T08:39:46;2.50;92.40
20337;DHT22;10326;53.660;10.200;2024-01-11T08:42:14;2.60;92.40
20337;DHT22;10326;53.660;10.200;2024-01-11T08:44:43;2.60;92.40
20337;DHT22;10326;53.660;10.200;2024-01-11T08:47:10;2.60;92.50
20337;DHT22;10326;53.660;10.200;2024-01-11T08:49:38;2.60;92.40
20337;DHT22;10326;53.660;10.200;2024-01-11T08:52:05;2.60;92.50
20337;DHT22;10326;53.660;10.200;2024-01-11T08:54:33;2.60;92.50
20337;DHT22;10326;53.660;10.200;2024-01-11T08:57:00;2.70;92.60
20337;DHT22;10326;53.660;10.200;2024-01-11T08:59:28;2.70;92.60
20337;DHT22;10326;53.660;10.200;2024-01-11T09:01:57;2.70;92.60
20337;DHT22;10326;53.660;10.200;2024-01-11T09:04:24;2.80;92.50
20337;DHT22;10326;53.660;10.200;2024-01-11T09:06:51;2.80;92.50
20337;DHT22;10326;53.660;10.200;2024-01-11T09:09:17;2.80;92.50
20337;DHT22;10326;53.660;10.200;2024-01-11T09:11:44;2.90;92.60
20337;DHT22;10326;53.660;10.200;2024-01-11T09:14:11;2.90;92.50
20337;DHT22;10326;53.660;10.200;2024-01-11T09:16:39;2.90;92.50
20337;DHT22;10326;53.660;10.200;2024-01-11T09:19:07;2.90;92.50
20337;DHT22;10326;53.660;10.200;2024-01-11T09:21:34;2.90;92.60
20337;DHT22;10326;53.660;10.200;2024-01-11T09:24:01;3.00;92.50
20337;DHT22;10326;53.660;10.200;2024-01-11T09:26:28;3.00;92.60
20337;DHT22;10326;53.660;10.200;2024-01-11T09:28:55;3.00;92.60
20337;DHT22;10326;53.660;10.200;2024-01-11T09:31:22;3.00;92.90
20337;DHT22;10326;53.660;10.200;2024-01-11T09:33:49;3.10;92.70
20337;DHT22;10326;53.660;10.200;2024-01-11T09:36:17;3.10;92.70
20337;DHT22;10326;53.660;10.200;2024-01-11T09:38:44;3.20;92.60
20337;DHT22;10326;53.660;10.200;2024-01-11T09:41:12;3.10;92.60
20337;DHT22;10326;53.660;10.200;2024-01-11T09:43:41;3.20;92.70
20337;DHT22;10326;53.660;10.200;2024-01-11T09:46:10;3.20;92.70
20337;DHT22;10326;53.660;10.200;2024-01-11T09:48:39;3.20;92.80
20337;DHT22;10326;53.660;10.200;2024-01-11T09:51:09;3.20;92.80
20337;DHT22;10326;53.660;10.200;2024-01-11T09:53:39;3.30;92.80
20337;DHT22;10326;53.660;10.200;2024-01-11T09:56:08;3.30;92.80
20337;DHT22;10326;53.660;10.200;2024-01-11T09:58:36;3.30;92.80
20337;DHT22;10326;53.660;10.200;2024-01-11T10:01:09;3.30;92.80
20337;DHT22;10326;53.660;10.200;2024-01-11T10:03:39;3.40;92.80
20337;DHT22;10326;53.660;10.200;2024-01-11T10:06:07;3.40;92.80
20337;DHT22;10326;53.660;10.200;2024-01-11T10:08:36;3.40;92.90
20337;DHT22;10326;53.660;10.200;2024-01-11T10:11:04;3.40;92.80
20337;DHT22;10326;53.660;10.200;2024-01-11T10:13:31;3.40;92.80
20337;DHT22;10326;53.660;10.200;2024-01-11T10:16:08;3.50;92.80
20337;DHT22;10326;53.660;10.200;2024-01-11T10:18:39;3.50;92.90
20337;DHT22;10326;53.660;10.200;2024-01-11T10:21:06;3.50;92.80
20337;DHT22;10326;53.660;10.200;2024-01-11T10:23:35;3.60;92.90
20337;DHT22;10326;53.660;10.200;2024-01-11T10:26:04;3.50;93.20
20337;DHT22;10326;53.660;10.200;2024-01-11T10:28:33;3.60;92.90
20337;DHT22;10326;53.660;10.200;2024-01-11T10:31:03;3.60;93.00
20337;DHT22;10326;53.660;10.200;2024-01-11T10:33:33;3.60;93.00
20337;DHT22;10326;53.660;10.200;2024-01-11T10:36:01;3.60;93.10
20337;DHT22;10326;53.660;10.200;2024-01-11T10:38:31;3.70;93.10
20337;DHT22;10326;53.660;10.200;2024-01-11T10:41:05;3.70;93.20
20337;DHT22;10326;53.660;10.200;2024-01-11T10:43:36;3.70;93.10
20337;DHT22;10326;53.660;10.200;2024-01-11T10:46:04;3.70;93.10
20337;DHT22;10326;53.660;10.200;2024-01-11T10:48:37;3.80;93.20
20337;DHT22;10326;53.660;10.200;2024-01-11T10:51:08;3.80;93.20
20337;DHT22;10326;53.660;10.200;2024-01-11T10:53:42;3.80;93.20
20337;DHT22;10326;53.660;10.200;2024-01-11T10:56:15;3.90;93.20
20337;DHT22;10326;53.660;10.200;2024-01-11T10:58:43;3.90;93.20
20337;DHT22;10326;53.660;10.200;2024-01-11T11:01:12;3.90;93.20
20337;DHT22;10326;53.660;10.200;2024-01-11T11:03:40;3.90;93.10
20337;DHT22;10326;53.660;10.200;2024-01-11T11:06:25;4.00;93.10
20337;DHT22;10326;53.660;10.200;2024-01-11T11:08:55;4.00;93.20
20337;DHT22;10326;53.660;10.200;2024-01-11T11:11:25;4.00;93.20
20337;DHT22;10326;53.660;10.200;2024-01-11T11:13:55;4.00;93.20
20337;DHT22;10326;53.660;10.200;2024-01-11T11:16:24;4.10;93.20
20337;DHT22;10326;53.660;10.200;2024-01-11T11:18:53;4.10;93.10
20337;DHT22;10326;53.660;10.200;2024-01-11T11:21:21;4.10;93.10
20337;DHT22;10326;53.660;10.200;2024-01-11T11:23:50;4.10;93.00
20337;DHT22;10326;53.660;10.200;2024-01-11T11:26:17;4.10;93.10
20337;DHT22;10326;53.660;10.200;2024-01-11T11:28:46;4.10;93.10
20337;DHT22;10326;53.660;10.200;2024-01-11T11:31:34;4.10;93.10
20337;DHT22;10326;53.660;10.200;2024-01-11T11:34:02;4.10;93.40
20337;DHT22;10326;53.660;10.200;2024-01-11T11:36:30;4.10;93.20
20337;DHT22;10326;53.660;10.200;2024-01-11T11:39:00;4.10;93.30
20337;DHT22;10326;53.660;10.200;2024-01-11T11:41:30;4.10;93.30
20337;DHT22;10326;53.660;10.200;2024-01-11T11:44:02;4.20;93.40
20337;DHT22;10326;53.660;10.200;2024-01-11T11:46:31;4.20;93.40
20337;DHT22;10326;53.660;10.200;2024-01-11T11:48:59;4.20;93.50
20337;DHT22;10326;53.660;10.200;2024-01-11T11:51:26;4.20;93.30
20337;DHT22;10326;53.660;10.200;2024-01-11T11:53:54;4.20;93.20
20337;DHT22;10326;53.660;10.200;2024-01-11T11:56:22;4.20;93.20
20337;DHT22;10326;53.660;10.200;2024-01-11T11:58:50;4.30;93.40
20337;DHT22;10326;53.660;10.200;2024-01-11T12:01:19;4.30;93.40
20337;DHT22;10326;53.660;10.200;2024-01-11T12:03:46;4.30;93.40
20337;DHT22;10326;53.660;10.200;2024-01-11T12:06:16;4.30;93.40
20337;DHT22;10326;53.660;10.200;2024-01-11T12:08:45;4.30;93.40
20337;DHT22;10326;53.660;10.200;2024-01-11T12:11:13;4.40;93.50
20337;DHT22;10326;53.660;10.200;2024-01-11T12:13:41;4.40;93.50
20337;DHT22;10326;53.660;10.200;2024-01-11T12:16:10;4.40;93.50
20337;DHT22;10326;53.660;10.200;2024-01-11T12:18:40;4.40;93.50
20337;DHT22;10326;53.660;10.200;2024-01-11T12:21:07;4.40;93.50
20337;DHT22;10326;53.660;10.200;2024-01-11T12:23:36;4.40;93.40
20337;DHT22;10326;53.660;10.200;2024-01-11T12:26:04;4.40;93.50
20337;DHT22;10326;53.660;10.200;2024-01-11T12:28:38;4.40;93.60
20337;DHT22;10326;53.660;10.200;2024-01-11T12:31:09;4.50;93.60
20337;DHT22;10326;53.660;10.200;2024-01-11T12:33:36;4.50;93.50
20337;DHT22;10326;53.660;10.200;2024-01-11T12:36:07;4.50;93.50
20337;DHT22;10326;53.660;10.200;2024-01-11T12:38:34;4.50;93.60
20337;DHT22;10326;53.660;10.200;2024-01-11T12:41:02;4.50;93.60
20337;DHT22;10326;53.660;10.200;2024-01-11T12:43:34;4.60;93.70
20337;DHT22;10326;53.660;10.200;2024-01-11T12:46:01;4.60;93.70
20337;DHT22;10326;53.660;10.200;2024-01-11T12:48:29;4.50;93.60
20337;DHT22;10326;53.660;10.200;2024-01-11T12:50:57;4.50;93.60
20337;DHT22;10326;53.660;10.200;2024-01-11T12:53:25;4.60;93.70
20337;DHT22;10326;53.660;10.200;2024-01-11T12:56:02;4.60;93.70
20337;DHT22;10326;53.660;10.200;2024-01-11T12:58:33;4.60;93.90
20337;DHT22;10326;53.660;10.200;2024-01-11T13:01:00;4.60;93.70
20337;DHT22;10326;53.660;10.200;2024-01-11T13:03:28;4.60;93.70
20337;DHT22;10326;53.660;10.200;2024-01-11T13:05:56;4.70;93.80
20337;DHT22;10326;53.660;10.200;2024-01-11T13:08:25;4.70;93.80
20337;DHT22;10326;53.660;10.200;2024-01-11T13:10:54;4.70;93.70
20337;DHT22;10326;53.660;10.200;2024-01-11T13:13:21;4.70;93.80
20337;DHT22;10326;53.660;10.200;2024-01-11T13:15:48;4.70;93.80
20337;DHT22;10326;53.660;10.200;2024-01-11T13:18:16;4.80;93.80
20337;DHT22;10326;53.660;10.200;2024-01-11T13:20:43;4.80;93.80
20337;DHT22;10326;53.660;10.200;2024-01-11T13:23:14;4.80;93.80
20337;DHT22;10326;53.660;10.200;2024-01-11T13:25:44;4.80;93.90
20337;DHT22;10326;53.660;10.200;2024-01-11T13:28:12;4.80;93.90
20337;DHT22;10326;53.660;10.200;2024-01-11T13:30:40;4.90;93.90
20337;DHT22;10326;53.660;10.200;2024-01-11T13:33:08;4.90;93.90
20337;DHT22;10326;53.660;10.200;2024-01-11T13:35:36;4.90;93.90
20337;DHT22;10326;53.660;10.200;2024-01-11T13:38:04;4.90;94.00
20337;DHT22;10326;53.660;10.200;2024-01-11T13:40:32;4.90;93.90
20337;DHT22;10326;53.660;10.200;2024-01-11T13:43:01;5.00;93.90
20337;DHT22;10326;53.660;10.200;2024-01-11T13:45:28;5.00;93.90
20337;DHT22;10326;53.660;10.200;2024-01-11T13:47:56;5.00;93.90
20337;DHT22;10326;53.660;10.200;2024-01-11T13:50:23;5.00;93.90
20337;DHT22;10326;53.660;10.200;2024-01-11T13:52:50;5.10;93.90
20337;DHT22;10326;53.660;10.200;2024-01-11T13:55:17;5.00;93.90
20337;DHT22;10326;53.660;10.200;2024-01-11T13:57:47;5.10;93.80
20337;DHT22;10326;53.660;10.200;2024-01-11T14:00:16;5.10;93.90
20337;DHT22;10326;53.660;10.200;2024-01-11T14:02:44;5.10;93.90
20337;DHT22;10326;53.660;10.200;2024-01-11T14:05:12;5.10;93.90
20337;DHT22;10326;53.660;10.200;2024-01-11T14:07:41;5.10;93.90
20337;DHT22;10326;53.660;10.200;2024-01-11T14:10:09;5.10;93.90
20337;DHT22;10326;53.660;10.200;2024-01-11T14:12:37;5.10;93.90
20337;DHT22;10326;53.660;10.200;2024-01-11T14:15:06;5.10;93.90
20337;DHT22;10326;53.660;10.200;2024-01-11T14:17:39;5.20;93.90
20337;DHT22;10326;53.660;10.200;2024-01-11T14:20:07;5.20;93.90
20337;DHT22;10326;53.660;10.200;2024-01-11T14:22:37;5.20;93.90
20337;DHT22;10326;53.660;10.200;2024-01-11T14:25:04;5.20;93.90
20337;DHT22;10326;53.660;10.200;2024-01-11T14:27:32;5.20;93.90
20337;DHT22;10326;53.660;10.200;2024-01-11T14:29:59;5.20;93.80
20337;DHT22;10326;53.660;10.200;2024-01-11T14:32:26;5.20;93.80
20337;DHT22;10326;53.660;10.200;2024-01-11T14:34:54;5.20;93.80
20337;DHT22;10326;53.660;10.200;2024-01-11T14:37:21;5.20;93.80
20337;DHT22;10326;53.660;10.200;2024-01-11T14:39:49;5.20;93.70
20337;DHT22;10326;53.660;10.200;2024-01-11T14:42:15;5.20;93.70
20337;DHT22;10326;53.660;10.200;2024-01-11T14:44:43;5.20;93.70
20337;DHT22;10326;53.660;10.200;2024-01-11T14:47:10;5.20;93.80
20337;DHT22;10326;53.660;10.200;2024-01-11T14:49:37;5.20;93.70
20337;DHT22;10326;53.660;10.200;2024-01-11T14:52:07;5.20;94.00
20337;DHT22;10326;53.660;10.200;2024-01-11T14:54:34;5.20;93.70
20337;DHT22;10326;53.660;10.200;2024-01-11T14:57:01;5.20;93.70
20337;DHT22;10326;53.660;10.200;2024-01-11T14:59:28;5.20;93.70
20337;DHT22;10326;53.660;10.200;2024-01-11T15:01:55;5.20;93.70
20337;DHT22;10326;53.660;10.200;2024-01-11T15:04:22;5.20;93.70
20337;DHT22;10326;53.660;10.200;2024-01-11T15:06:49;5.20;93.70
20337;DHT22;10326;53.660;10.200;2024-01-11T15:09:17;5.20;93.60
20337;DHT22;10326;53.660;10.200;2024-01-11T15:11:44;5.20;93.70
20337;DHT22;10326;53.660;10.200;2024-01-11T15:14:12;5.20;93.60
20337;DHT22;10326;53.660;10.200;2024-01-11T15:16:39;5.20;93.70
20337;DHT22;10326;53.660;10.200;2024-01-11T15:19:07;5.20;93.70
20337;DHT22;10326;53.660;10.200;2024-01-11T15:21:34;5.20;93.60
20337;DHT22;10326;53.660;10.200;2024-01-11T15:24:01;5.20;93.60
20337;DHT22;10326;53.660;10.200;2024-01-11T15:26:30;5.20;93.60
20337;DHT22;10326;53.660;10.200;2024-01-11T15:28:57;5.20;93.60
20337;DHT22;10326;53.660;10.200;2024-01-11T15:31:24;5.20;93.60
20337;DHT22;10326;53.660;10.200;2024-01-11T15:33:51;5.20;93.60